Aviation Digital Data Service (ADDS)

Output produced by METARs form (2255 UTC 20 January 2019)
found at http://www.aviationweather.gov/metar/data/
 
METAR text: ETSL 202220Z 03006KT 6000 BKN005 BKN040 M04/M05 Q1017 YLO
Conditions at: ETSL (LECHFELD (GER-AF, DE) observed 2220 UTC 20 January 2019
Temperature: -4.0°C (25°F)
Dewpoint: -5.0°C (23°F) [RH = 93%]
Pressure (altimeter): 30.03 inches Hg (1017.0 mb)
Winds: from the NNE (30 degrees) at 7 MPH (6 knots; 3.1 m/s)
Visibility: 4 miles ( 6 km)
Ceiling: 500 feet AGL
Clouds: broken clouds at 500 feet AGL
broken clouds at 4000 feet AGL
Weather: no significant weather observed at this time

METAR text: ETSL 202120Z 04006KT 5000 BR BKN004 BKN035 M04/M04 Q1016 YLO
Conditions at: ETSL (LECHFELD (GER-AF, DE) observed 2120 UTC 20 January 2019
Temperature: -4.0°C (25°F)
Dewpoint: -4.0°C (25°F) [RH = 100%]
Pressure (altimeter): 30.00 inches Hg (1016.0 mb)
Winds: from the NE (40 degrees) at 7 MPH (6 knots; 3.1 m/s)
Visibility: 3 miles ( 5 km)
Ceiling: 400 feet AGL
Clouds: broken clouds at 400 feet AGL
broken clouds at 3500 feet AGL
Weather: BR  (mist)

METAR text: ETSL 202020Z 04005KT 6000 -SN SCT004 BKN035 M04/M04 Q1016 WHT
Conditions at: ETSL (LECHFELD (GER-AF, DE) observed 2020 UTC 20 January 2019
Temperature: -4.0°C (25°F)
Dewpoint: -4.0°C (25°F) [RH = 100%]
Pressure (altimeter): 30.00 inches Hg (1016.0 mb)
Winds: from the NE (40 degrees) at 6 MPH (5 knots; 2.6 m/s)
Visibility: 4 miles ( 6 km)
Ceiling: 3500 feet AGL
Clouds: scattered clouds at 400 feet AGL
broken clouds at 3500 feet AGL
Weather: -SN  (light snow)

METAR text: ETSL 201920Z 04005KT 6000 -SN FEW005 SCT030 BKN040 M04/M04 Q1015 WHT
Conditions at: ETSL (LECHFELD (GER-AF, DE) observed 1920 UTC 20 January 2019
Temperature: -4.0°C (25°F)
Dewpoint: -4.0°C (25°F) [RH = 100%]
Pressure (altimeter): 29.97 inches Hg (1015.0 mb)
Winds: from the NE (40 degrees) at 6 MPH (5 knots; 2.6 m/s)
Visibility: 4 miles ( 6 km)
Ceiling: 4000 feet AGL
Clouds: few clouds at 500 feet AGL
scattered clouds at 3000 feet AGL
broken clouds at 4000 feet AGL
Weather: -SN  (light snow)

METAR text: ETSL 201820Z 02004KT 6000 BKN030 M04/M04 Q1015 WHT
Conditions at: ETSL (LECHFELD (GER-AF, DE) observed 1820 UTC 20 January 2019
Temperature: -4.0°C (25°F)
Dewpoint: -4.0°C (25°F) [RH = 100%]
Pressure (altimeter): 29.97 inches Hg (1015.0 mb)
Winds: from the NNE (20 degrees) at 5 MPH (4 knots; 2.1 m/s)
Visibility: 4 miles ( 6 km)
Ceiling: 3000 feet AGL
Clouds: broken clouds at 3000 feet AGL
Weather: no significant weather observed at this time

METAR text: ETSL 201720Z 02004KT 7000 BKN030 M04/M04 Q1014 WHT
Conditions at: ETSL (LECHFELD (GER-AF, DE) observed 1720 UTC 20 January 2019
Temperature: -4.0°C (25°F)
Dewpoint: -4.0°C (25°F) [RH = 100%]
Pressure (altimeter): 29.94 inches Hg (1014.0 mb)
Winds: from the NNE (20 degrees) at 5 MPH (4 knots; 2.1 m/s)
Visibility: 4 miles ( 7 km)
Ceiling: 3000 feet AGL
Clouds: broken clouds at 3000 feet AGL
Weather: no significant weather observed at this time

METAR text: ETSL 201620Z 02003KT 8000 FEW020 BKN030 M04/M05 Q1014 BLU
Conditions at: ETSL (LECHFELD (GER-AF, DE) observed 1620 UTC 20 January 2019
Temperature: -4.0°C (25°F)
Dewpoint: -5.0°C (23°F) [RH = 93%]
Pressure (altimeter): 29.94 inches Hg (1014.0 mb)
Winds: from the NNE (20 degrees) at 3 MPH (3 knots; 1.5 m/s)
Visibility: 5 miles ( 8 km)
Ceiling: 3000 feet AGL
Clouds: few clouds at 2000 feet AGL
broken clouds at 3000 feet AGL
Weather: no significant weather observed at this time

METAR text: ETSL 201520Z 04003KT 8000 FEW025 BKN045 BKN090 M03/M05 Q1014 BLU
Conditions at: ETSL (LECHFELD (GER-AF, DE) observed 1520 UTC 20 January 2019
Temperature: -3.0°C (27°F)
Dewpoint: -5.0°C (23°F) [RH = 86%]
Pressure (altimeter): 29.94 inches Hg (1014.0 mb)
Winds: from the NE (40 degrees) at 3 MPH (3 knots; 1.5 m/s)
Visibility: 5 miles ( 8 km)
Ceiling: 4500 feet AGL
Clouds: few clouds at 2500 feet AGL
broken clouds at 4500 feet AGL
broken clouds at 9000 feet AGL
Weather: no significant weather observed at this time

METAR text: ETSL 201420Z 07002KT 8000 FEW020 BKN050 BKN080 M04/M06 Q1013 BLU
Conditions at: ETSL (LECHFELD (GER-AF, DE) observed 1420 UTC 20 January 2019
Temperature: -4.0°C (25°F)
Dewpoint: -6.0°C (21°F) [RH = 86%]
Pressure (altimeter): 29.91 inches Hg (1013.0 mb)
Winds: from the ENE (70 degrees) at 2 MPH (2 knots; 1.0 m/s)
Visibility: 5 miles ( 8 km)
Ceiling: 5000 feet AGL
Clouds: few clouds at 2000 feet AGL
broken clouds at 5000 feet AGL
broken clouds at 8000 feet AGL
Weather: no significant weather observed at this time

METAR text: ETSL 201346Z 03003KT 8000 -SN FEW020 BKN045 M04/M06 Q1013 BLU
Conditions at: ETSL (LECHFELD (GER-AF, DE) observed 1346 UTC 20 January 2019
Temperature: -4.0°C (25°F)
Dewpoint: -6.0°C (21°F) [RH = 86%]
Pressure (altimeter): 29.91 inches Hg (1013.0 mb)
Winds: from the NNE (30 degrees) at 3 MPH (3 knots; 1.5 m/s)
Visibility: 5 miles ( 8 km)
Ceiling: 4500 feet AGL
Clouds: few clouds at 2000 feet AGL
broken clouds at 4500 feet AGL
Weather: -SN  (light snow)

METAR text: ETSL 201320Z 03004KT 5000 -SN FEW020 BKN045 M04/M06 Q1013 WHT
Conditions at: ETSL (LECHFELD (GER-AF, DE) observed 1320 UTC 20 January 2019
Temperature: -4.0°C (25°F)
Dewpoint: -6.0°C (21°F) [RH = 86%]
Pressure (altimeter): 29.91 inches Hg (1013.0 mb)
Winds: from the NNE (30 degrees) at 5 MPH (4 knots; 2.1 m/s)
Visibility: 3 miles ( 5 km)
Ceiling: 4500 feet AGL
Clouds: few clouds at 2000 feet AGL
broken clouds at 4500 feet AGL
Weather: -SN  (light snow)

METAR text: ETSL 201246Z 02003KT 6000 -SN FEW015 SCT020 BKN040 M04/M06 Q1013 WHT
Conditions at: ETSL (LECHFELD (GER-AF, DE) observed 1246 UTC 20 January 2019
Temperature: -4.0°C (25°F)
Dewpoint: -6.0°C (21°F) [RH = 86%]
Pressure (altimeter): 29.91 inches Hg (1013.0 mb)
Winds: from the NNE (20 degrees) at 3 MPH (3 knots; 1.5 m/s)
Visibility: 4 miles ( 6 km)
Ceiling: 4000 feet AGL
Clouds: few clouds at 1500 feet AGL
scattered clouds at 2000 feet AGL
broken clouds at 4000 feet AGL
Weather: -SN  (light snow)

METAR text: ETSL 201220Z 01004KT 4000 -SN BR FEW015 BKN020 M05/M07 Q1013 GRN
Conditions at: ETSL (LECHFELD (GER-AF, DE) observed 1220 UTC 20 January 2019
Temperature: -5.0°C (23°F)
Dewpoint: -7.0°C (19°F) [RH = 86%]
Pressure (altimeter): 29.91 inches Hg (1013.0 mb)
Winds: from the N (10 degrees) at 5 MPH (4 knots; 2.1 m/s)
Visibility: 2.49 miles (4.01 km)
Ceiling: 2000 feet AGL
Clouds: few clouds at 1500 feet AGL
broken clouds at 2000 feet AGL
Weather: -SN BR  (light snow, mist)

METAR text: ETSL 201148Z 01003KT 5000 -SN BR FEW015 BKN020 M05/M07 Q1013 WHT
Conditions at: ETSL (LECHFELD (GER-AF, DE) observed 1148 UTC 20 January 2019
Temperature: -5.0°C (23°F)
Dewpoint: -7.0°C (19°F) [RH = 86%]
Pressure (altimeter): 29.91 inches Hg (1013.0 mb)
Winds: from the N (10 degrees) at 3 MPH (3 knots; 1.5 m/s)
Visibility: 3 miles ( 5 km)
Ceiling: 2000 feet AGL
Clouds: few clouds at 1500 feet AGL
broken clouds at 2000 feet AGL
Weather: -SN BR  (light snow, mist)

METAR text: ETSL 201120Z 36002KT 3500 -SN BR OVC020 M05/M08 Q1013 YLO
Conditions at: ETSL (LECHFELD (GER-AF, DE) observed 1120 UTC 20 January 2019
Temperature: -5.0°C (23°F)
Dewpoint: -8.0°C (18°F) [RH = 79%]
Pressure (altimeter): 29.91 inches Hg (1013.0 mb)
Winds: from the N (360 degrees) at 2 MPH (2 knots; 1.0 m/s)
Visibility: 2.17 miles (3.49 km)
Ceiling: 2000 feet AGL
Clouds: overcast cloud deck at 2000 feet AGL
Weather: -SN BR  (light snow, mist)

METAR text: ETSL 201020Z AUTO VRB02KT 9000 // ////// M06/M09 Q1013 ///
Conditions at: ETSL (LECHFELD (GER-AF, DE) observed 1020 UTC 20 January 2019
Temperature: -6.0°C (21°F)
Dewpoint: -9.0°C (16°F) [RH = 79%]
Pressure (altimeter): 29.91 inches Hg (1013.0 mb)
Winds: variable direction winds at 2 MPH (2 knots; 1.0 m/s)
Visibility: 6 miles ( 9 km)
Ceiling: unknown
Clouds: missing
Weather: no significant weather observed at this time

METAR text: ETSL 200920Z AUTO 33001KT 9999 // ////// M07/M10 Q1013 ///
Conditions at: ETSL (LECHFELD (GER-AF, DE) observed 0920 UTC 20 January 2019
Temperature: -7.0°C (19°F)
Dewpoint: -10.0°C (14°F) [RH = 79%]
Pressure (altimeter): 29.91 inches Hg (1013.0 mb)
Winds: from the NNW (330 degrees) at 1 MPH (1 knots; 0.5 m/s)
Visibility: 6 or more miles (10+ km)
Ceiling: unknown
Clouds: missing
Weather: no significant weather observed at this time

METAR text: ETSL 200820Z AUTO 34001KT 9999 // ////// M09/M11 Q1012 ///
Conditions at: ETSL (LECHFELD (GER-AF, DE) observed 0820 UTC 20 January 2019
Temperature: -9.0°C (16°F)
Dewpoint: -11.0°C (12°F) [RH = 85%]
Pressure (altimeter): 29.88 inches Hg (1012.0 mb)
Winds: from the NNW (340 degrees) at 1 MPH (1 knots; 0.5 m/s)
Visibility: 6 or more miles (10+ km)
Ceiling: unknown
Clouds: missing
Weather: no significant weather observed at this time

METAR text: ETSL 200720Z AUTO 17003KT 9999 // ////// M12/M14 Q1012 ///
Conditions at: ETSL (LECHFELD (GER-AF, DE) observed 0720 UTC 20 January 2019
Temperature: -12.0°C (10°F)
Dewpoint: -14.0°C ( 7°F) [RH = 85%]
Pressure (altimeter): 29.88 inches Hg (1012.0 mb)
Winds: from the S (170 degrees) at 3 MPH (3 knots; 1.5 m/s)
Visibility: 6 or more miles (10+ km)
Ceiling: unknown
Clouds: missing
Weather: no significant weather observed at this time

METAR text: ETSL 200620Z AUTO 16002KT 9999 // ////// M12/M14 Q1011 ///
Conditions at: ETSL (LECHFELD (GER-AF, DE) observed 0620 UTC 20 January 2019
Temperature: -12.0°C (10°F)
Dewpoint: -14.0°C ( 7°F) [RH = 85%]
Pressure (altimeter): 29.85 inches Hg (1011.0 mb)
Winds: from the SSE (160 degrees) at 2 MPH (2 knots; 1.0 m/s)
Visibility: 6 or more miles (10+ km)
Ceiling: unknown
Clouds: missing
Weather: no significant weather observed at this time

METAR text: ETSL 200520Z AUTO 00000KT 9999 // ////// M11/M13 Q1011 ///
Conditions at: ETSL (LECHFELD (GER-AF, DE) observed 0520 UTC 20 January 2019
Temperature: -11.0°C (12°F)
Dewpoint: -13.0°C ( 9°F) [RH = 85%]
Pressure (altimeter): 29.85 inches Hg (1011.0 mb)
Winds: calm
Visibility: 6 or more miles (10+ km)
Ceiling: unknown
Clouds: missing
Weather: no significant weather observed at this time

METAR text: ETSL 200420Z AUTO 21001KT 9999 // ////// M11/M13 Q1011 ///
Conditions at: ETSL (LECHFELD (GER-AF, DE) observed 0420 UTC 20 January 2019
Temperature: -11.0°C (12°F)
Dewpoint: -13.0°C ( 9°F) [RH = 85%]
Pressure (altimeter): 29.85 inches Hg (1011.0 mb)
Winds: from the SSW (210 degrees) at 1 MPH (1 knots; 0.5 m/s)
Visibility: 6 or more miles (10+ km)
Ceiling: unknown
Clouds: missing
Weather: no significant weather observed at this time

METAR text: ETSL 200320Z AUTO 20002KT 9999 // ////// M10/M12 Q1011 ///
Conditions at: ETSL (LECHFELD (GER-AF, DE) observed 0320 UTC 20 January 2019
Temperature: -10.0°C (14°F)
Dewpoint: -12.0°C (10°F) [RH = 85%]
Pressure (altimeter): 29.85 inches Hg (1011.0 mb)
Winds: from the SSW (200 degrees) at 2 MPH (2 knots; 1.0 m/s)
Visibility: 6 or more miles (10+ km)
Ceiling: unknown
Clouds: missing
Weather: no significant weather observed at this time

METAR text: ETSL 200220Z AUTO 19003KT 9999 // ////// M10/M11 Q1011 ///
Conditions at: ETSL (LECHFELD (GER-AF, DE) observed 0220 UTC 20 January 2019
Temperature: -10.0°C (14°F)
Dewpoint: -11.0°C (12°F) [RH = 92%]
Pressure (altimeter): 29.85 inches Hg (1011.0 mb)
Winds: from the S (190 degrees) at 3 MPH (3 knots; 1.5 m/s)
Visibility: 6 or more miles (10+ km)
Ceiling: unknown
Clouds: missing
Weather: no significant weather observed at this time

METAR text: ETSL 200120Z AUTO 19004KT 9000 // ////// M10/M11 Q1012 ///
Conditions at: ETSL (LECHFELD (GER-AF, DE) observed 0120 UTC 20 January 2019
Temperature: -10.0°C (14°F)
Dewpoint: -11.0°C (12°F) [RH = 92%]
Pressure (altimeter): 29.88 inches Hg (1012.0 mb)
Winds: from the S (190 degrees) at 5 MPH (4 knots; 2.1 m/s)
Visibility: 6 miles ( 9 km)
Ceiling: unknown
Clouds: missing
Weather: no significant weather observed at this time

METAR text: ETSL 200020Z AUTO 20002KT 7000 // ////// M11/M12 Q1012 ///
Conditions at: ETSL (LECHFELD (GER-AF, DE) observed 0020 UTC 20 January 2019
Temperature: -11.0°C (12°F)
Dewpoint: -12.0°C (10°F) [RH = 92%]
Pressure (altimeter): 29.88 inches Hg (1012.0 mb)
Winds: from the SSW (200 degrees) at 2 MPH (2 knots; 1.0 m/s)
Visibility: 4 miles ( 7 km)
Ceiling: unknown
Clouds: missing
Weather: no significant weather observed at this time

METAR text: ETSL 192320Z AUTO 18004KT 0150 // ////// M12/M13 Q1012 ///
Conditions at: ETSL (LECHFELD (GER-AF, DE) observed 2320 UTC 19 January 2019
Temperature: -12.0°C (10°F)
Dewpoint: -13.0°C ( 9°F) [RH = 92%]
Pressure (altimeter): 29.88 inches Hg (1012.0 mb)
Winds: from the S (180 degrees) at 5 MPH (4 knots; 2.1 m/s)
Visibility: 0.09 miles (0.14 km)
Ceiling: unknown
Clouds: missing
Weather: no significant weather observed at this time

METAR text: ETSL 192220Z AUTO 18003KT 7000 // ////// M11/M12 Q1012 ///
Conditions at: ETSL (LECHFELD (GER-AF, DE) observed 2220 UTC 19 January 2019
Temperature: -11.0°C (12°F)
Dewpoint: -12.0°C (10°F) [RH = 92%]
Pressure (altimeter): 29.88 inches Hg (1012.0 mb)
Winds: from the S (180 degrees) at 3 MPH (3 knots; 1.5 m/s)
Visibility: 4 miles ( 7 km)
Ceiling: unknown
Clouds: missing
Weather: no significant weather observed at this time

METAR text: ETSL 192120Z AUTO 19003KT 6000 // ////// M11/M12 Q1012 ///
Conditions at: ETSL (LECHFELD (GER-AF, DE) observed 2120 UTC 19 January 2019
Temperature: -11.0°C (12°F)
Dewpoint: -12.0°C (10°F) [RH = 92%]
Pressure (altimeter): 29.88 inches Hg (1012.0 mb)
Winds: from the S (190 degrees) at 3 MPH (3 knots; 1.5 m/s)
Visibility: 4 miles ( 6 km)
Ceiling: unknown
Clouds: missing
Weather: no significant weather observed at this time

METAR text: ETSL 192020Z AUTO 20001KT 7000 // ////// M09/M10 Q1012 ///
Conditions at: ETSL (LECHFELD (GER-AF, DE) observed 2020 UTC 19 January 2019
Temperature: -9.0°C (16°F)
Dewpoint: -10.0°C (14°F) [RH = 92%]
Pressure (altimeter): 29.88 inches Hg (1012.0 mb)
Winds: from the SSW (200 degrees) at 1 MPH (1 knots; 0.5 m/s)
Visibility: 4 miles ( 7 km)
Ceiling: unknown
Clouds: missing
Weather: no significant weather observed at this time

METAR text: ETSL 191920Z AUTO 28001KT 1400 // ////// M08/M09 Q1012 ///
Conditions at: ETSL (LECHFELD (GER-AF, DE) observed 1920 UTC 19 January 2019
Temperature: -8.0°C (18°F)
Dewpoint: -9.0°C (16°F) [RH = 92%]
Pressure (altimeter): 29.88 inches Hg (1012.0 mb)
Winds: from the W (280 degrees) at 1 MPH (1 knots; 0.5 m/s)
Visibility: 0.87 miles (1.40 km)
Ceiling: unknown
Clouds: missing
Weather: no significant weather observed at this time

METAR text: ETSL 191820Z AUTO 00000KT 5000 // ////// M07/M07 Q1012 ///
Conditions at: ETSL (LECHFELD (GER-AF, DE) observed 1820 UTC 19 January 2019
Temperature: -7.0°C (19°F)
Dewpoint: -7.0°C (19°F) [RH = 100%]
Pressure (altimeter): 29.88 inches Hg (1012.0 mb)
Winds: calm
Visibility: 3 miles ( 5 km)
Ceiling: unknown
Clouds: missing
Weather: no significant weather observed at this time

METAR text: ETSL 191720Z AUTO 00000KT 9999 // ////// M06/M08 Q1012 ///
Conditions at: ETSL (LECHFELD (GER-AF, DE) observed 1720 UTC 19 January 2019
Temperature: -6.0°C (21°F)
Dewpoint: -8.0°C (18°F) [RH = 86%]
Pressure (altimeter): 29.88 inches Hg (1012.0 mb)
Winds: calm
Visibility: 6 or more miles (10+ km)
Ceiling: unknown
Clouds: missing
Weather: no significant weather observed at this time

METAR text: ETSL 191620Z AUTO 00000KT 9999 // ////// M04/M07 Q1012 ///
Conditions at: ETSL (LECHFELD (GER-AF, DE) observed 1620 UTC 19 January 2019
Temperature: -4.0°C (25°F)
Dewpoint: -7.0°C (19°F) [RH = 80%]
Pressure (altimeter): 29.88 inches Hg (1012.0 mb)
Winds: calm
Visibility: 6 or more miles (10+ km)
Ceiling: unknown
Clouds: missing
Weather: no significant weather observed at this time

METAR text: ETSL 191520Z AUTO 33001KT 9999 // ////// M03/M07 Q1013 ///
Conditions at: ETSL (LECHFELD (GER-AF, DE) observed 1520 UTC 19 January 2019
Temperature: -3.0°C (27°F)
Dewpoint: -7.0°C (19°F) [RH = 74%]
Pressure (altimeter): 29.91 inches Hg (1013.0 mb)
Winds: from the NNW (330 degrees) at 1 MPH (1 knots; 0.5 m/s)
Visibility: 6 or more miles (10+ km)
Ceiling: unknown
Clouds: missing
Weather: no significant weather observed at this time

METAR text: ETSL 191420Z AUTO 34001KT 9000 // ////// M03/M08 Q1013 ///
Conditions at: ETSL (LECHFELD (GER-AF, DE) observed 1420 UTC 19 January 2019
Temperature: -3.0°C (27°F)
Dewpoint: -8.0°C (18°F) [RH = 68%]
Pressure (altimeter): 29.91 inches Hg (1013.0 mb)
Winds: from the NNW (340 degrees) at 1 MPH (1 knots; 0.5 m/s)
Visibility: 6 miles ( 9 km)
Ceiling: unknown
Clouds: missing
Weather: no significant weather observed at this time

METAR text: ETSL 191320Z AUTO 32002KT 7000 // ////// M03/M07 Q1013 ///
Conditions at: ETSL (LECHFELD (GER-AF, DE) observed 1320 UTC 19 January 2019
Temperature: -3.0°C (27°F)
Dewpoint: -7.0°C (19°F) [RH = 74%]
Pressure (altimeter): 29.91 inches Hg (1013.0 mb)
Winds: from the NW (320 degrees) at 2 MPH (2 knots; 1.0 m/s)
Visibility: 4 miles ( 7 km)
Ceiling: unknown
Clouds: missing
Weather: no significant weather observed at this time

METAR text: ETSL 191220Z AUTO VRB02KT 7000 // ////// M04/M07 Q1014 ///
Conditions at: ETSL (LECHFELD (GER-AF, DE) observed 1220 UTC 19 January 2019
Temperature: -4.0°C (25°F)
Dewpoint: -7.0°C (19°F) [RH = 80%]
Pressure (altimeter): 29.94 inches Hg (1014.0 mb)
Winds: variable direction winds at 2 MPH (2 knots; 1.0 m/s)
Visibility: 4 miles ( 7 km)
Ceiling: unknown
Clouds: missing
Weather: no significant weather observed at this time

METAR text: ETSL 191120Z AUTO 18001KT 8000 // ////// M05/M07 Q1015 ///
Conditions at: ETSL (LECHFELD (GER-AF, DE) observed 1120 UTC 19 January 2019
Temperature: -5.0°C (23°F)
Dewpoint: -7.0°C (19°F) [RH = 86%]
Pressure (altimeter): 29.97 inches Hg (1015.0 mb)
Winds: from the S (180 degrees) at 1 MPH (1 knots; 0.5 m/s)
Visibility: 5 miles ( 8 km)
Ceiling: unknown
Clouds: missing
Weather: no significant weather observed at this time